Time;durP1;ratioP1;P1;durP2;ratioP2;P2;SDS_P1;SDS_P2;PMS_P1;PMS_P2;Temp;Humidity;BMP_temperature;BMP_pressure;BME280_temperature;BME280_humidity;BME280_pressure;Samples;Min_cycle;Max_cycle;Signal;HPM_P1;HPM_P2
2024/02/04 00:00:30;;;;;;;17.33;12.93;;;;;;;9.07;67.87;100234.28;5093006;28;20024;-49
2024/02/04 00:02:56;;;;;;;20.00;14.27;;;;;;;8.92;68.68;100228.78;5093065;28;20024;-49
2024/02/04 00:05:22;;;;;;;18.27;12.65;;;;;;;8.80;68.81;100229.00;5092915;28;20035;-49
2024/02/04 00:07:48;;;;;;;20.10;12.95;;;;;;;8.83;69.59;100227.84;5092942;28;20370;-49
2024/02/04 00:10:15;;;;;;;84.00;15.88;;;;;;;8.72;69.68;100231.53;5092853;28;20028;-49
2024/02/04 00:12:41;;;;;;;16.65;12.98;;;;;;;8.65;70.36;100233.09;5092823;28;20399;-48
2024/02/04 00:15:08;;;;;;;14.13;11.43;;;;;;;8.85;71.11;100236.38;5092678;28;20570;-48
2024/02/04 00:17:34;;;;;;;15.82;12.02;;;;;;;9.13;70.84;100224.00;5091409;28;20028;-49
2024/02/04 00:20:01;;;;;;;12.52;10.35;;;;;;;9.34;70.16;100223.66;5092617;28;20024;-48
2024/02/04 00:22:27;;;;;;;11.93;9.38;;;;;;;9.52;69.20;100234.09;5092623;28;20054;-48
2024/02/04 00:24:53;;;;;;;16.10;10.63;;;;;;;9.69;68.92;100224.50;5092543;28;20088;-48
2024/02/04 00:27:19;;;;;;;12.38;10.55;;;;;;;9.76;68.55;100233.41;5092556;28;20032;-48
2024/02/04 00:29:45;;;;;;;16.38;11.73;;;;;;;9.55;67.74;100238.19;5090604;28;20033;-48
2024/02/04 00:32:11;;;;;;;15.52;12.98;;;;;;;9.50;68.19;100228.19;5091221;28;20101;-47
2024/02/04 00:34:37;;;;;;;14.85;12.18;;;;;;;9.54;68.41;100226.09;5091049;28;20024;-48
2024/02/04 00:37:02;;;;;;;21.88;12.32;;;;;;;9.68;68.32;100222.03;5091068;28;20134;-47
2024/02/04 00:39:28;;;;;;;17.05;12.98;;;;;;;9.57;67.88;100215.28;5092354;28;20024;-47
2024/02/04 00:41:54;;;;;;;17.17;11.70;;;;;;;9.48;68.18;100224.91;5092317;28;20528;-48
2024/02/04 00:44:20;;;;;;;22.00;16.48;;;;;;;9.38;68.40;100224.19;5092270;28;20497;-48
2024/02/04 00:46:45;;;;;;;16.95;12.07;;;;;;;9.25;68.52;100224.59;5091937;28;20036;-48
2024/02/04 00:49:11;;;;;;;17.58;12.95;;;;;;;9.25;69.07;100226.38;5090880;28;20050;-48
2024/02/04 00:51:37;;;;;;;20.58;12.98;;;;;;;9.25;69.69;100229.81;5092188;28;20398;-47
2024/02/04 00:54:03;;;;;;;23.70;15.00;;;;;;;9.14;69.97;100228.28;5092075;28;20035;-47
2024/02/04 00:56:28;;;;;;;52.30;13.68;;;;;;;9.11;70.90;100239.03;5092065;28;20498;-47
2024/02/04 00:58:54;;;;;;;14.50;11.93;;;;;;;9.14;70.85;100238.75;5092081;28;20062;-47
2024/02/04 01:01:20;;;;;;;15.38;11.10;;;;;;;9.21;70.84;100238.97;5092009;28;20017;-47
2024/02/04 01:03:46;;;;;;;14.57;10.23;;;;;;;9.24;70.43;100238.66;5091996;28;20028;-47
2024/02/04 01:06:12;;;;;;;14.70;12.63;;;;;;;9.20;70.18;100234.72;5091967;28;20020;-47
2024/02/04 01:08:37;;;;;;;13.40;10.85;;;;;;;9.12;70.40;100238.09;5090629;28;20119;-47
2024/02/04 01:11:05;;;;;;;15.70;11.23;;;;;;;9.10;70.62;100240.03;5091920;28;20028;-47
2024/02/04 01:13:31;;;;;;;14.55;10.65;;;;;;;9.08;70.34;100235.94;5092206;28;20482;-47
2024/02/04 01:15:57;;;;;;;14.63;10.10;;;;;;;8.98;69.98;100238.63;5090603;28;20055;-47
2024/02/04 01:18:23;;;;;;;16.40;10.98;;;;;;;9.00;70.46;100247.97;5091821;28;20043;-47
2024/02/04 01:20:48;;;;;;;14.05;10.50;;;;;;;9.05;70.36;100252.75;5090792;28;20050;-47
2024/02/04 01:23:17;;;;;;;15.15;11.65;;;;;;;9.06;70.47;100251.78;5091769;28;20508;-47
2024/02/04 01:25:43;;;;;;;14.00;10.52;;;;;;;9.15;70.72;100237.78;5091715;28;20020;-47
2024/02/04 01:28:09;;;;;;;14.20;10.70;;;;;;;9.10;70.16;100240.03;5091752;28;20032;-47
2024/02/04 01:30:35;;;;;;;13.23;10.82;;;;;;;9.08;70.53;100241.19;5090398;28;20396;-47
2024/02/04 01:33:01;;;;;;;12.80;10.25;;;;;;;9.03;70.28;100243.41;5091659;28;20027;-47
2024/02/04 01:35:26;;;;;;;11.77;8.93;;;;;;;8.87;70.29;100257.19;5091618;28;20031;-47
2024/02/04 01:37:52;;;;;;;11.60;8.95;;;;;;;8.78;70.71;100258.91;5091695;28;20486;-47
2024/02/04 01:40:18;;;;;;;11.27;8.68;;;;;;;8.87;70.72;100259.81;5092053;28;20027;-47
2024/02/04 01:42:44;;;;;;;10.65;8.27;;;;;;;8.99;70.38;100263.84;5095730;28;20366;-47
2024/02/04 01:45:11;;;;;;;11.32;8.50;;;;;;;8.94;70.02;100269.53;5111310;28;20020;-47
2024/02/04 01:47:37;;;;;;;12.65;8.85;;;;;;;8.88;69.98;100279.78;5095457;28;20044;-47
2024/02/04 01:50:03;;;;;;;22.17;19.95;;;;;;;8.87;70.48;100270.28;5095603;28;20024;-47
2024/02/04 01:52:33;;;;;;;9.02;7.80;;;;;;;8.86;70.56;100269.47;5095790;28;20393;-47
2024/02/04 01:55:00;;;;;;;10.00;7.47;;;;;;;8.86;70.55;100266.03;5111154;28;20086;-47
2024/02/04 01:57:26;;;;;;;9.80;7.88;;;;;;;8.95;71.03;100270.34;5095465;28;20576;-47
2024/02/04 01:59:54;;;;;;;9.55;7.95;;;;;;;8.97;70.79;100265.78;5095433;28;20106;-47
2024/02/04 02:02:20;;;;;;;14.15;9.20;;;;;;;8.97;71.10;100263.16;5095327;28;20031;-47
2024/02/04 02:04:47;;;;;;;11.25;10.05;;;;;;;9.05;71.23;100262.41;5111009;28;20020;-47
2024/02/04 02:07:16;;;;;;;10.75;8.90;;;;;;;9.10;70.79;100265.41;5093905;28;20039;-46
2024/02/04 02:09:43;;;;;;;10.23;7.18;;;;;;;9.02;70.51;100262.72;5110946;28;20376;-47
2024/02/04 02:12:16;;;;;;;9.20;7.65;;;;;;;8.91;70.81;100259.34;5095107;28;20031;-47
2024/02/04 02:14:46;;;;;;;9.27;7.55;;;;;;;9.01;71.28;100264.50;5095105;28;20059;-47
2024/02/04 02:17:18;;;;;;;10.50;8.10;;;;;;;9.06;70.68;100271.94;5095106;28;20038;-47
2024/02/04 02:20:21;;;;;;;8.80;7.10;;;;;;;9.04;70.84;100266.03;5095136;28;20031;-47
2024/02/04 02:23:15;;;;;;;9.07;7.35;;;;;;;9.14;70.51;100264.13;5095009;28;20059;-47
2024/02/04 02:25:41;;;;;;;10.77;8.93;;;;;;;9.09;70.61;100266.38;5092481;28;20039;-47
2024/02/04 02:28:07;;;;;;;10.35;7.93;;;;;;;8.87;70.24;100254.56;5094852;28;20073;-47
2024/02/04 02:30:33;;;;;;;11.00;8.52;;;;;;;8.63;70.82;100247.31;5093480;28;20101;-47
2024/02/04 02:33:00;;;;;;;9.13;7.25;;;;;;;8.46;71.53;100235.88;5094796;28;20466;-47
2024/02/04 02:35:26;;;;;;;8.90;6.57;;;;;;;8.47;72.26;100240.13;5110300;28;20024;-47
2024/02/04 02:38:29;;;;;;;8.45;6.85;;;;;;;8.52;72.78;100224.81;5094682;28;20553;-47
2024/02/04 02:41:03;;;;;;;9.93;7.60;;;;;;;8.50;71.98;100222.34;5110396;28;20113;-47
2024/02/04 02:43:30;;;;;;;7.75;6.65;;;;;;;8.52;72.12;100227.44;5094593;28;20032;-47
2024/02/04 02:45:59;;;;;;;30.75;27.42;;;;;;;8.40;72.06;100211.09;5094219;28;20132;-47
2024/02/04 02:48:25;;;;;;;71.35;64.15;;;;;;;8.37;72.07;100207.00;5094865;28;20055;-47
2024/02/04 02:50:53;;;;;;;13.38;11.18;;;;;;;8.43;72.85;100210.84;5093980;28;20105;-47
2024/02/04 02:53:20;;;;;;;33.95;30.38;;;;;;;8.46;72.36;100215.75;5092886;28;20111;-47
2024/02/04 02:55:46;;;;;;;19.10;17.15;;;;;;;8.56;72.95;100200.81;5094245;28;20074;-47
2024/02/04 02:58:13;;;;;;;54.17;48.45;;;;;;;8.53;72.62;100197.66;5094215;28;20020;-47
2024/02/04 03:00:38;;;;;;;104.65;94.22;;;;;;;8.53;72.50;100195.03;5094215;28;20516;-47
2024/02/04 03:03:04;;;;;;;35.67;32.10;;;;;;;8.44;72.44;100191.53;5094089;28;20028;-47
2024/02/04 03:05:30;;;;;;;25.65;21.83;;;;;;;8.47;72.54;100187.78;5094047;28;20024;-47
2024/02/04 03:07:56;;;;;;;10.82;9.70;;;;;;;8.48;72.58;100192.88;5094024;28;20486;-47
2024/02/04 03:10:21;;;;;;;8.00;7.20;;;;;;;8.62;72.36;100193.34;5093942;28;20112;-47
2024/02/04 03:12:47;;;;;;;7.90;7.10;;;;;;;8.71;71.25;100193.28;5094007;28;20084;-47
2024/02/04 03:15:13;;;;;;;7.43;6.40;;;;;;;8.85;70.85;100199.72;5093867;28;20554;-47
2024/02/04 03:17:39;;;;;;;7.65;5.15;;;;;;;8.97;70.82;100209.03;5093915;28;20020;-47
2024/02/04 03:20:05;;;;;;;6.03;4.80;;;;;;;9.08;70.22;100223.66;5109515;28;20032;-47
2024/02/04 03:22:30;;;;;;;9.70;5.20;;;;;;;8.97;69.82;100223.88;5093792;28;20445;-47
2024/02/04 03:24:56;;;;;;;6.88;5.63;;;;;;;8.91;69.73;100227.94;5093797;28;20028;-47
2024/02/04 03:27:22;;;;;;;7.32;5.95;;;;;;;8.89;69.95;100224.63;5109359;28;20562;-47
2024/02/04 03:29:48;;;;;;;5.70;4.65;;;;;;;8.99;69.76;100214.06;5093910;28;20070;-47
2024/02/04 03:32:13;;;;;;;10.05;8.77;;;;;;;9.02;69.09;100221.66;5093592;28;20039;-47
2024/02/04 03:34:42;;;;;;;9.30;5.72;;;;;;;9.02;69.31;100226.06;5093725;28;20454;-47
2024/02/04 03:37:07;;;;;;;8.30;4.70;;;;;;;9.06;69.17;100222.16;5093518;28;20051;-47
2024/02/04 03:39:33;;;;;;;7.63;5.53;;;;;;;9.03;68.75;100217.22;5093521;28;20212;-47
2024/02/04 03:41:59;;;;;;;5.80;4.35;;;;;;;9.06;68.79;100216.94;5109108;28;20031;-47
2024/02/04 03:44:25;;;;;;;11.05;7.07;;;;;;;9.22;68.92;100224.09;5093381;28;20510;-47
2024/02/04 03:46:51;;;;;;;8.30;5.13;;;;;;;9.34;68.57;100231.53;5108706;28;20131;-47
2024/02/04 03:49:17;;;;;;;6.97;5.00;;;;;;;9.42;67.50;100233.38;5108934;28;20028;-47
2024/02/04 03:51:43;;;;;;;5.93;5.03;;;;;;;9.42;67.47;100237.78;5108887;28;20020;-47
2024/02/04 03:54:09;;;;;;;7.65;5.47;;;;;;;9.47;67.61;100230.28;5093107;28;20016;-47
2024/02/04 03:56:35;;;;;;;6.90;5.15;;;;;;;9.42;67.27;100228.16;5093388;28;20032;-47
2024/02/04 03:59:01;;;;;;;8.50;6.25;;;;;;;9.38;67.98;100235.47;5093039;28;20031;-47
2024/02/04 04:01:27;;;;;;;10.25;5.13;;;;;;;9.54;67.77;100233.94;5093060;28;20020;-47
2024/02/04 04:03:52;;;;;;;5.93;4.95;;;;;;;9.66;67.64;100224.00;5092063;28;20486;-47
2024/02/04 04:06:18;;;;;;;5.85;5.05;;;;;;;9.56;67.27;100224.94;5092949;28;20024;-47
2024/02/04 04:08:44;;;;;;;8.95;7.70;;;;;;;9.34;67.09;100233.34;5092953;28;20099;-47
2024/02/04 04:11:11;;;;;;;7.65;5.20;;;;;;;9.27;67.64;100234.91;5092823;28;20059;-47
2024/02/04 04:13:37;;;;;;;7.03;4.95;;;;;;;9.26;67.97;100223.63;5108524;28;20397;-48
2024/02/04 04:16:04;;;;;;;7.85;4.97;;;;;;;9.35;67.91;100240.19;5108677;28;20032;-47
2024/02/04 04:18:30;;;;;;;8.02;6.68;;;;;;;9.32;67.55;100241.34;5092704;28;20020;-48
2024/02/04 04:20:56;;;;;;;7.55;5.50;;;;;;;9.27;67.60;100246.22;5092729;28;20032;-47
2024/02/04 04:23:22;;;;;;;5.03;4.35;;;;;;;9.31;67.60;100251.97;5092670;28;20059;-48
2024/02/04 04:25:48;;;;;;;10.80;9.80;;;;;;;9.25;67.30;100253.41;5092614;28;20060;-48
2024/02/04 04:28:13;;;;;;;7.00;4.68;;;;;;;9.20;67.62;100250.44;5092787;28;20016;-48
2024/02/04 04:30:40;;;;;;;8.32;5.25;;;;;;;9.16;67.74;100247.28;5108147;28;20028;-48
2024/02/04 04:33:06;;;;;;;7.13;4.85;;;;;;;9.06;67.75;100258.84;5108180;28;20024;-48
2024/02/04 04:35:32;;;;;;;6.45;4.82;;;;;;;9.14;68.13;100264.13;5092295;28;20063;-48
2024/02/04 04:37:58;;;;;;;6.53;4.18;;;;;;;9.22;67.88;100258.97;5092476;28;20020;-47
2024/02/04 04:40:24;;;;;;;5.78;3.92;;;;;;;9.18;67.40;100273.34;5091165;28;20036;-47
2024/02/04 04:42:50;;;;;;;5.20;3.63;;;;;;;9.19;67.65;100272.34;5092246;28;20024;-47
2024/02/04 04:45:15;;;;;;;9.88;8.75;;;;;;;9.12;67.50;100289.66;5092310;28;20060;-48
2024/02/04 04:47:41;;;;;;;6.78;4.45;;;;;;;9.03;67.75;100306.25;5092047;28;20066;-47
2024/02/04 04:50:07;;;;;;;7.45;5.07;;;;;;;8.90;67.91;100311.88;5092146;28;20020;-48
2024/02/04 04:52:33;;;;;;;5.93;4.68;;;;;;;8.82;68.06;100312.63;5092460;28;20401;-48
2024/02/04 04:54:59;;;;;;;5.22;4.00;;;;;;;8.80;68.65;100311.94;5107715;28;20022;-47
2024/02/04 04:57:25;;;;;;;5.18;4.15;;;;;;;8.88;68.62;100313.81;5092062;28;20028;-47
2024/02/04 04:59:50;;;;;;;6.00;3.75;;;;;;;8.99;68.57;100311.81;5092116;28;20016;-47
2024/02/04 05:02:16;;;;;;;5.65;4.70;;;;;;;9.07;68.01;100325.94;5091961;28;20547;-48
2024/02/04 05:04:45;;;;;;;5.18;4.10;;;;;;;8.94;67.81;100321.91;5092025;28;20397;-47
2024/02/04 05:07:11;;;;;;;7.15;3.47;;;;;;;8.87;68.12;100320.03;5091992;28;20020;-47
2024/02/04 05:09:37;;;;;;;7.30;5.43;;;;;;;8.84;68.24;100325.56;5092236;28;20059;-48
2024/02/04 05:12:03;;;;;;;6.60;3.85;;;;;;;8.83;68.69;100323.91;5092473;28;20108;-48
2024/02/04 05:14:29;;;;;;;41.80;37.72;;;;;;;8.84;68.46;100322.94;5091541;28;20085;-48
2024/02/04 05:16:55;;;;;;;42.58;34.60;;;;;;;8.87;68.92;100333.94;5091848;28;20485;-48
2024/02/04 05:19:21;;;;;;;23.95;19.48;;;;;;;8.93;69.06;100328.13;5090479;28;20379;-48
2024/02/04 05:21:47;;;;;;;11.10;7.50;;;;;;;9.04;69.16;100328.88;5091839;28;20052;-48
2024/02/04 05:24:13;;;;;;;8.07;5.43;;;;;;;9.09;68.23;100340.53;5091759;28;20073;-48
2024/02/04 05:26:39;;;;;;;5.50;4.05;;;;;;;9.03;68.27;100335.06;5091744;28;20024;-48
2024/02/04 05:29:05;;;;;;;4.63;3.75;;;;;;;9.00;68.22;100326.53;5092068;28;20382;-48
2024/02/04 05:31:30;;;;;;;5.60;3.72;;;;;;;8.96;68.51;100334.84;5091780;28;20028;-48
2024/02/04 05:33:56;;;;;;;4.63;3.70;;;;;;;8.88;68.29;100338.22;5107325;28;20031;-48
2024/02/04 05:36:22;;;;;;;9.50;4.65;;;;;;;8.95;68.85;100318.31;5091744;28;20034;-48
2024/02/04 05:38:48;;;;;;;4.03;3.00;;;;;;;9.01;68.04;100316.88;5107291;28;20107;-48
2024/02/04 05:41:14;;;;;;;6.15;3.65;;;;;;;8.92;68.05;100313.38;5091626;28;20032;-48
2024/02/04 05:43:39;;;;;;;21.13;19.23;;;;;;;8.96;67.97;100314.72;5091663;28;20031;-48
2024/02/04 05:46:05;;;;;;;6.70;4.65;;;;;;;8.89;67.94;100310.22;5076862;28;20093;-48
2024/02/04 05:48:31;;;;;;;6.22;3.55;;;;;;;8.92;68.12;100302.09;5091592;28;20036;-48
2024/02/04 05:50:57;;;;;;;5.78;3.25;;;;;;;9.11;68.15;100309.75;5091589;28;20451;-48
2024/02/04 05:53:23;;;;;;;6.85;3.92;;;;;;;9.15;67.14;100305.88;5107150;28;20043;-48
2024/02/04 05:55:48;;;;;;;4.40;3.67;;;;;;;9.19;66.96;100304.63;5091457;28;20414;-48
2024/02/04 05:58:14;;;;;;;7.55;4.30;;;;;;;9.23;66.97;100294.63;5107111;28;20028;-48
2024/02/04 06:00:40;;;;;;;5.90;3.50;;;;;;;9.22;66.88;100295.63;5091466;28;20028;-48
2024/02/04 06:03:06;;;;;;;6.75;3.28;;;;;;;9.08;66.94;100290.94;5090297;28;20032;-48
2024/02/04 06:05:32;;;;;;;6.65;3.80;;;;;;;9.18;67.34;100284.63;5091463;28;20030;-48
2024/02/04 06:07:58;;;;;;;5.60;4.75;;;;;;;9.36;66.71;100274.13;5091446;28;20095;-48
2024/02/04 06:10:24;;;;;;;4.50;3.63;;;;;;;9.50;66.44;100271.94;5091354;28;20028;-49
2024/02/04 06:12:50;;;;;;;6.47;3.78;;;;;;;9.45;66.51;100280.22;5091428;28;20024;-48
2024/02/04 06:15:16;;;;;;;3.65;3.03;;;;;;;9.48;66.77;100273.88;5091275;28;20470;-48
2024/02/04 06:17:42;;;;;;;4.38;3.10;;;;;;;9.53;66.28;100276.84;5091352;28;20110;-48
2024/02/04 06:20:08;;;;;;;7.95;3.03;;;;;;;9.51;65.81;100282.22;5091197;28;20016;-48
2024/02/04 06:22:35;;;;;;;3.70;3.00;;;;;;;9.45;65.48;100276.78;5091250;28;20024;-49
2024/02/04 06:25:02;;;;;;;9.05;4.85;;;;;;;9.42;65.88;100280.56;5091207;28;20103;-48
2024/02/04 06:27:27;;;;;;;5.72;3.47;;;;;;;9.42;65.76;100277.09;5109151;28;20115;-48
2024/02/04 06:29:53;;;;;;;6.60;2.83;;;;;;;9.38;65.92;100271.34;5110528;28;20031;-48
2024/02/04 06:32:22;;;;;;;5.65;4.25;;;;;;;9.42;66.32;100274.47;5094755;28;20042;-49
2024/02/04 06:34:47;;;;;;;4.30;3.30;;;;;;;9.54;65.60;100276.69;5110423;28;20020;-49
2024/02/04 06:37:13;;;;;;;4.32;3.38;;;;;;;9.60;65.23;100281.31;5094728;28;20074;-49
2024/02/04 06:39:39;;;;;;;4.63;2.97;;;;;;;9.59;64.72;100274.41;5094676;28;20024;-48
2024/02/04 06:42:05;;;;;;;6.10;3.58;;;;;;;9.56;65.11;100282.59;5094620;28;20543;-48
2024/02/04 06:44:30;;;;;;;6.43;4.60;;;;;;;9.58;65.04;100277.22;5094598;28;20027;-48
2024/02/04 06:46:56;;;;;;;5.55;3.13;;;;;;;9.67;65.26;100278.91;5094311;28;20044;-49
2024/02/04 06:49:22;;;;;;;4.13;3.10;;;;;;;9.76;64.86;100277.16;5110238;28;20025;-48
2024/02/04 06:51:47;;;;;;;5.43;3.00;;;;;;;9.86;64.72;100279.66;5094447;28;20020;-48
2024/02/04 06:54:14;;;;;;;10.82;8.27;;;;;;;9.84;63.92;100278.97;5109944;28;20028;-48
2024/02/04 06:56:40;;;;;;;7.82;4.30;;;;;;;9.80;64.25;100278.50;5110034;28;20020;-49
2024/02/04 06:59:06;;;;;;;4.78;3.22;;;;;;;9.66;64.25;100274.66;5094328;28;20101;-49
2024/02/04 07:01:34;;;;;;;6.03;4.40;;;;;;;9.48;64.37;100269.44;5094177;28;20059;-49
2024/02/04 07:04:00;;;;;;;4.65;3.75;;;;;;;9.38;64.97;100260.88;5093030;28;20024;-49
2024/02/04 07:06:26;;;;;;;9.82;7.88;;;;;;;9.47;65.56;100265.16;5094184;28;20028;-48
2024/02/04 07:08:52;;;;;;;5.95;3.40;;;;;;;9.68;65.46;100270.06;5094219;28;20101;-48
2024/02/04 07:11:17;;;;;;;4.65;3.05;;;;;;;9.84;64.94;100273.72;5094131;28;20545;-49
2024/02/04 07:13:44;;;;;;;5.28;4.55;;;;;;;9.88;64.26;100267.19;5094087;28;20107;-49
2024/02/04 07:16:09;;;;;;;21.98;19.63;;;;;;;9.92;64.16;100268.53;5093882;28;20034;-49
2024/02/04 07:18:35;;;;;;;6.95;6.07;;;;;;;9.92;64.05;100258.03;5092677;28;20111;-49
2024/02/04 07:21:01;;;;;;;8.00;4.43;;;;;;;9.83;63.83;100264.25;5093897;28;20028;-48
2024/02/04 07:23:27;;;;;;;6.00;4.15;;;;;;;9.77;64.26;100274.34;5093835;28;20034;-49
2024/02/04 07:25:52;;;;;;;12.50;11.10;;;;;;;9.80;64.51;100273.25;5093840;28;20551;-49
2024/02/04 07:28:18;;;;;;;7.75;6.63;;;;;;;9.71;63.90;100277.59;5093776;28;20062;-49
2024/02/04 07:30:44;;;;;;;5.97;4.50;;;;;;;9.64;64.66;100275.75;5092323;28;20518;-49
2024/02/04 07:33:09;;;;;;;6.55;4.18;;;;;;;9.63;64.72;100282.00;5109335;28;20031;-48
2024/02/04 07:35:35;;;;;;;8.63;6.05;;;;;;;9.39;64.82;100280.84;5093534;28;20031;-49
2024/02/04 07:38:01;;;;;;;5.85;4.20;;;;;;;9.28;65.71;100284.53;5093488;28;20020;-49
2024/02/04 07:40:27;;;;;;;7.43;4.40;;;;;;;9.26;65.95;100283.88;5093761;28;20036;-49
2024/02/04 07:42:54;;;;;;;6.32;3.72;;;;;;;9.30;66.07;100284.41;5093696;28;20422;-49
2024/02/04 07:45:20;;;;;;;7.35;5.55;;;;;;;9.34;66.12;100281.31;5093415;28;20482;-49
2024/02/04 07:47:46;;;;;;;6.13;3.80;;;;;;;9.43;66.30;100273.50;5093121;28;20040;-49
2024/02/04 07:50:12;;;;;;;6.40;4.55;;;;;;;9.55;66.19;100269.66;5093243;28;20047;-49
2024/02/04 07:52:38;;;;;;;6.70;4.78;;;;;;;9.65;65.67;100277.41;5093310;28;20028;-49
2024/02/04 07:55:04;;;;;;;4.80;4.28;;;;;;;9.72;65.51;100281.88;5091903;28;20118;-49
2024/02/04 07:57:29;;;;;;;8.50;4.45;;;;;;;9.72;65.87;100284.50;5108807;28;20028;-48
2024/02/04 07:59:55;;;;;;;6.35;3.72;;;;;;;9.82;65.79;100286.19;5093110;28;20023;-49
2024/02/04 08:02:21;;;;;;;6.97;3.80;;;;;;;9.89;65.71;100274.09;5093074;28;20064;-48
2024/02/04 08:04:47;;;;;;;6.90;3.65;;;;;;;9.87;65.41;100278.69;5093059;28;20016;-49
2024/02/04 08:07:13;;;;;;;5.28;4.15;;;;;;;9.88;65.11;100281.16;5092981;28;20024;-48
2024/02/04 08:09:38;;;;;;;5.60;4.05;;;;;;;9.77;64.60;100286.66;5108641;28;20490;-48
2024/02/04 08:12:04;;;;;;;6.38;4.57;;;;;;;9.74;65.02;100295.66;5093176;28;20047;-49
2024/02/04 08:14:33;;;;;;;9.40;4.22;;;;;;;9.78;64.92;100302.25;5092783;28;20112;-49
2024/02/04 08:16:59;;;;;;;6.50;4.72;;;;;;;9.83;64.33;100308.81;5092821;28;20020;-49
2024/02/04 08:19:24;;;;;;;4.93;3.78;;;;;;;9.74;64.56;100302.72;5092737;28;20020;-49
2024/02/04 08:21:50;;;;;;;10.07;6.13;;;;;;;9.71;64.78;100311.69;5092739;28;20111;-49
2024/02/04 08:24:16;;;;;;;10.45;4.10;;;;;;;9.78;64.73;100320.59;5074546;28;20020;-49
2024/02/04 08:26:42;;;;;;;7.03;3.45;;;;;;;9.62;64.18;100320.50;5092621;28;20390;-48
2024/02/04 08:29:08;;;;;;;5.55;3.88;;;;;;;9.45;64.70;100323.97;5092644;28;20103;-49
2024/02/04 08:31:33;;;;;;;7.05;3.33;;;;;;;9.35;64.95;100322.25;5092541;28;20024;-49
2024/02/04 08:33:59;;;;;;;5.45;3.47;;;;;;;9.38;65.02;100326.38;5092528;28;20436;-48
2024/02/04 08:36:25;;;;;;;6.07;4.25;;;;;;;9.34;65.45;100331.09;5092344;28;20035;-48
2024/02/04 08:38:51;;;;;;;5.20;3.10;;;;;;;9.44;65.48;100330.16;5092444;28;20031;-49
2024/02/04 08:41:16;;;;;;;5.95;3.22;;;;;;;9.42;65.18;100342.59;5107993;28;20124;-48
2024/02/04 08:43:42;;;;;;;8.38;3.42;;;;;;;9.34;65.52;100336.34;5108059;28;20375;-49
2024/02/04 08:46:08;;;;;;;8.90;3.88;;;;;;;9.38;65.58;100342.09;5107654;28;20034;-49
2024/02/04 08:48:33;;;;;;;6.07;3.65;;;;;;;9.45;65.69;100337.88;5092330;28;20023;-49
2024/02/04 08:50:59;;;;;;;6.40;3.22;;;;;;;9.44;65.64;100340.66;5091750;28;20058;-48
2024/02/04 08:53:25;;;;;;;21.27;9.05;;;;;;;9.39;65.77;100336.69;5092185;28;20030;-49
2024/02/04 08:55:51;;;;;;;9.95;4.63;;;;;;;9.50;65.82;100347.94;5092094;28;20482;-49
2024/02/04 08:58:17;;;;;;;8.77;3.80;;;;;;;9.44;65.47;100331.00;5092058;28;20051;-49
2024/02/04 09:00:42;;;;;;;8.90;4.10;;;;;;;9.43;65.83;100333.78;5092014;28;20020;-48
2024/02/04 09:03:08;;;;;;;6.32;4.05;;;;;;;9.54;65.56;100329.13;5107697;28;20016;-49
2024/02/04 09:05:34;;;;;;;7.72;3.63;;;;;;;9.56;65.35;100329.78;5091980;28;20107;-49
2024/02/04 09:08:01;;;;;;;6.63;4.00;;;;;;;9.60;66.18;100325.88;5091966;28;20016;-48
2024/02/04 09:10:27;;;;;;;9.15;3.65;;;;;;;9.66;65.71;100319.22;5092236;28;20411;-49
2024/02/04 09:12:53;;;;;;;6.45;2.88;;;;;;;9.58;65.36;100319.97;5092014;28;20012;-48
2024/02/04 09:15:18;;;;;;;7.65;3.95;;;;;;;9.64;65.84;100321.16;5091777;28;20031;-49
2024/02/04 09:17:44;;;;;;;5.65;3.80;;;;;;;9.80;65.14;100326.50;5107569;28;20024;-49
2024/02/04 09:20:11;;;;;;;4.68;2.63;;;;;;;9.85;64.73;100328.66;5091872;28;20062;-49
2024/02/04 09:22:36;;;;;;;7.07;5.15;;;;;;;9.85;65.58;100326.03;5090635;28;20497;-49
2024/02/04 09:25:02;;;;;;;7.07;3.40;;;;;;;9.85;65.30;100331.28;5091845;28;20032;-49
2024/02/04 09:27:28;;;;;;;23.92;20.80;;;;;;;9.64;64.78;100322.94;5091782;28;20012;-49
2024/02/04 09:29:55;;;;;;;85.55;76.75;;;;;;;9.44;66.14;100338.88;5091802;28;20020;-49
2024/02/04 09:32:20;;;;;;;27.92;23.10;;;;;;;9.51;66.39;100334.66;5091649;28;20107;-48
2024/02/04 09:34:46;;;;;;;28.80;25.67;;;;;;;9.50;65.85;100330.41;5091664;28;20165;-49
2024/02/04 09:37:12;;;;;;;16.67;6.55;;;;;;;9.58;66.28;100335.69;5073625;28;20020;-48
2024/02/04 09:39:37;;;;;;;34.97;28.63;;;;;;;9.74;66.13;100332.38;5107364;28;20070;-49
2024/02/04 09:42:03;;;;;;;30.65;27.00;;;;;;;9.84;65.63;100342.75;5090452;28;20105;-49
2024/02/04 09:44:32;;;;;;;10.10;8.32;;;;;;;10.01;65.77;100341.03;5091647;28;20490;-49
2024/02/04 09:46:59;;;;;;;5.10;3.42;;;;;;;10.16;65.35;100334.25;5091300;28;20043;-48
2024/02/04 09:49:27;;;;;;;5.57;3.28;;;;;;;10.12;64.98;100337.31;5090417;28;20022;-48
2024/02/04 09:51:52;;;;;;;5.18;2.90;;;;;;;10.08;64.88;100333.34;5091536;28;20599;-49
2024/02/04 09:54:20;;;;;;;7.60;3.10;;;;;;;10.15;65.07;100339.63;5091465;28;20036;-49
2024/02/04 09:56:47;;;;;;;9.27;6.80;;;;;;;10.33;64.64;100334.34;5107203;28;20028;-48
2024/02/04 09:59:13;;;;;;;5.35;3.13;;;;;;;10.39;64.23;100331.09;5091568;28;20085;-49
2024/02/04 10:01:39;;;;;;;9.15;3.15;;;;;;;10.28;63.52;100326.91;5108119;28;20495;-49
2024/02/04 10:04:05;;;;;;;18.05;14.88;;;;;;;10.16;64.09;100331.63;5095612;28;20024;-49
2024/02/04 10:06:32;;;;;;;17.13;12.18;;;;;;;10.19;64.23;100330.47;5093998;28;20042;-49
2024/02/04 10:08:58;;;;;;;22.90;16.95;;;;;;;10.27;63.79;100316.56;5095333;28;20498;-48
2024/02/04 10:11:23;;;;;;;9.75;5.90;;;;;;;10.41;63.49;100321.25;5095167;28;20033;-48
2024/02/04 10:13:50;;;;;;;8.77;5.07;;;;;;;10.54;63.43;100323.41;5111207;28;20027;-48
2024/02/04 10:16:16;;;;;;;13.88;7.78;;;;;;;10.63;62.64;100322.47;5093740;28;20498;-49
2024/02/04 10:18:43;;;;;;;10.88;6.57;;;;;;;10.62;61.75;100322.63;5095343;28;20420;-49
2024/02/04 10:21:18;;;;;;;8.43;5.47;;;;;;;10.76;61.81;100322.00;5110705;28;20545;-49
2024/02/04 10:23:44;;;;;;;13.48;7.20;;;;;;;10.91;61.65;100330.09;5094995;28;20021;-49
2024/02/04 10:26:10;;;;;;;12.43;7.57;;;;;;;10.82;61.02;100336.28;5110618;28;20109;-48
2024/02/04 10:28:37;;;;;;;12.68;8.23;;;;;;;10.53;61.20;100330.47;5110614;28;20048;-49
2024/02/04 10:31:03;;;;;;;11.32;8.20;;;;;;;10.45;61.85;100340.13;5094872;28;20024;-49
2024/02/04 10:33:31;;;;;;;19.08;9.80;;;;;;;10.30;61.57;100338.13;5110491;28;20220;-49
2024/02/04 10:35:57;;;;;;;14.85;9.10;;;;;;;10.24;61.69;100349.22;5093388;28;20027;-49
2024/02/04 10:38:26;;;;;;;16.75;9.35;;;;;;;10.26;62.36;100333.28;5110403;28;20409;-49
2024/02/04 10:40:54;;;;;;;20.55;9.65;;;;;;;10.24;61.72;100341.34;5094715;28;20028;-49
2024/02/04 10:43:21;;;;;;;14.95;9.00;;;;;;;10.07;62.13;100345.66;5094619;28;20020;-49
2024/02/04 10:45:48;;;;;;;18.88;14.02;;;;;;;9.97;62.38;100337.91;5094808;28;20404;-49
2024/02/04 10:48:20;;;;;;;15.77;9.38;;;;;;;10.10;62.44;100336.66;5094290;28;20044;-48
2024/02/04 10:50:47;;;;;;;12.93;9.05;;;;;;;10.26;62.34;100331.50;5094789;28;20443;-49
2024/02/04 10:53:19;;;;;;;16.05;9.73;;;;;;;10.35;61.81;100324.50;5110039;28;20024;-48
2024/02/04 10:55:46;;;;;;;14.10;9.50;;;;;;;10.32;61.66;100319.56;5094410;28;20070;-49
2024/02/04 10:58:16;;;;;;;15.00;10.15;;;;;;;10.10;61.37;100329.63;5109968;28;20398;-49
2024/02/04 11:00:42;;;;;;;13.07;9.48;;;;;;;9.94;61.73;100327.72;5092988;28;20073;-49
2024/02/04 11:03:08;;;;;;;18.60;10.13;;;;;;;9.90;62.22;100326.41;5094261;28;20024;-49
2024/02/04 11:05:35;;;;;;;13.63;9.30;;;;;;;9.92;62.58;100327.06;5094246;28;20026;-49
2024/02/04 11:08:05;;;;;;;15.30;10.80;;;;;;;9.95;62.27;100312.81;5094166;28;20103;-49
2024/02/04 11:10:32;;;;;;;14.60;8.95;;;;;;;9.99;62.07;100306.28;5092775;28;20035;-49
2024/02/04 11:12:59;;;;;;;15.80;8.82;;;;;;;10.02;62.23;100302.50;5109288;28;20035;-49
2024/02/04 11:15:31;;;;;;;15.32;9.25;;;;;;;9.90;61.72;100305.41;5109605;28;20024;-49
2024/02/04 11:18:24;;;;;;;15.18;8.93;;;;;;;9.77;62.29;100305.00;5109751;28;20031;-48
2024/02/04 11:21:09;;;;;;;12.60;8.18;;;;;;;9.93;62.81;100306.91;5094033;28;20111;-49
2024/02/04 11:23:59;;;;;;;13.00;7.53;;;;;;;9.98;61.78;100308.09;5109556;28;20034;-49